createdAt,value
2022-10-07T00:00:06.972Z,99.99
2022-10-07T00:01:07.585Z,99.99
2022-10-07T00:02:07.924Z,99.99
2022-10-07T00:03:08.127Z,99.99
2022-10-07T00:04:09.442Z,99.99
2022-10-07T00:05:09.486Z,99.99
2022-10-07T00:06:10.488Z,99.99
2022-10-07T00:07:10.477Z,99.99
2022-10-07T00:08:11.797Z,99.99
2022-10-07T00:09:12.212Z,99.99
2022-10-07T00:10:13.214Z,99.99
2022-10-07T00:11:13.822Z,99.99
2022-10-07T00:12:14.102Z,99.99
2022-10-07T00:13:14.749Z,99.99
2022-10-07T00:14:14.723Z,99.99
2022-10-07T00:15:15.758Z,99.99
2022-10-07T00:16:16.631Z,99.99
2022-10-07T00:17:16.611Z,99.99
2022-10-07T00:18:16.598Z,99.99
2022-10-07T00:19:17.910Z,99.99
2022-10-07T00:20:18.839Z,99.99
2022-10-07T00:21:19.537Z,99.99
2022-10-07T00:22:19.859Z,99.99
2022-10-07T00:23:20.889Z,99.99
2022-10-07T00:24:20.899Z,99.99
2022-10-07T00:25:21.539Z,99.99
2022-10-07T00:26:22.464Z,99.99
2022-10-07T00:27:22.489Z,99.99
2022-10-07T00:28:23.779Z,99.99
2022-10-07T00:29:24.527Z,99.99
2022-10-07T00:30:24.867Z,99.99
2022-10-07T00:31:26.016Z,99.99
2022-10-07T00:32:26.341Z,99.99
2022-10-07T00:33:26.333Z,99.99
2022-10-07T00:34:27.263Z,99.99
2022-10-07T00:35:27.230Z,99.99
2022-10-07T00:36:28.018Z,99.99
2022-10-07T00:37:28.525Z,99.99
2022-10-07T00:38:29.189Z,99.99
2022-10-07T00:39:29.687Z,99.99
2022-10-07T00:40:29.992Z,99.99
2022-10-07T00:41:30.629Z,99.99
2022-10-07T00:42:30.840Z,99.99
2022-10-07T00:43:31.772Z,99.99
2022-10-07T00:44:32.097Z,99.99
2022-10-07T00:45:33.076Z,99.99
2022-10-07T00:46:32.923Z,99.99
2022-10-07T00:47:33.405Z,99.99
2022-10-07T00:48:33.736Z,99.99
2022-10-07T00:49:34.055Z,99.99
2022-10-07T00:50:35.096Z,99.99
2022-10-07T00:51:35.987Z,99.99
2022-10-07T00:52:36.604Z,99.99
2022-10-07T00:53:37.821Z,99.99
2022-10-07T00:54:38.745Z,99.99
2022-10-07T00:55:38.969Z,99.99
2022-10-07T00:56:39.880Z,99.99
2022-10-07T00:57:39.778Z,99.99
2022-10-07T00:58:39.970Z,99.99
2022-10-07T00:59:40.603Z,99.99
2022-10-07T01:00:41.025Z,99.99
2022-10-07T01:01:42.376Z,99.99
2022-10-07T01:02:42.907Z,99.99
2022-10-07T01:03:43.401Z,99.99
2022-10-07T01:04:43.596Z,99.99
2022-10-07T01:05:44.107Z,99.99
2022-10-07T01:06:45.026Z,99.99
2022-10-07T01:07:45.542Z,99.99
2022-10-07T01:08:45.199Z,99.99
2022-10-07T01:09:45.841Z,99.99
2022-10-07T01:10:46.175Z,99.99
2022-10-07T01:11:46.393Z,99.99
2022-10-07T01:12:47.308Z,99.99
2022-10-07T01:13:47.535Z,99.99
2022-10-07T01:14:48.174Z,99.99
2022-10-07T01:15:48.393Z,99.99
2022-10-07T01:16:48.780Z,99.99
2022-10-07T01:17:49.272Z,99.99
2022-10-07T01:18:49.918Z,99.99
2022-10-07T01:19:50.143Z,99.99
2022-10-07T01:20:50.444Z,99.99
2022-10-07T01:21:50.631Z,99.99
2022-10-07T01:22:50.817Z,99.99
2022-10-07T01:23:51.451Z,99.99
2022-10-07T01:24:52.070Z,99.99
2022-10-07T01:25:52.995Z,99.99
2022-10-07T01:26:53.908Z,99.99
2022-10-07T01:27:54.227Z,99.99
2022-10-07T01:28:54.740Z,99.99
2022-10-07T01:29:55.083Z,99.99
2022-10-07T01:30:55.743Z,99.99
2022-10-07T01:31:56.244Z,99.99
2022-10-07T01:32:56.828Z,99.99
2022-10-07T01:33:58.034Z,99.99
2022-10-07T01:34:58.229Z,99.99
2022-10-07T01:35:58.558Z,99.99
2022-10-07T01:36:59.613Z,99.99
2022-10-07T01:38:00.823Z,99.99
2022-10-07T01:39:01.733Z,99.99
2022-10-07T01:40:02.331Z,99.99
2022-10-07T01:41:02.764Z,99.99
2022-10-07T01:42:03.000Z,99.99
2022-10-07T01:43:03.620Z,99.99
2022-10-07T01:44:04.113Z,99.99
2022-10-07T01:45:04.729Z,99.99
2022-10-07T01:46:05.485Z,99.99
2022-10-07T01:47:05.386Z,99.99
2022-10-07T01:48:06.292Z,99.99
2022-10-07T01:49:07.257Z,99.99
2022-10-07T01:50:07.176Z,99.99
2022-10-07T01:51:07.344Z,99.99
2022-10-07T01:52:07.533Z,99.99
2022-10-07T01:53:08.125Z,99.99
2022-10-07T01:54:08.741Z,99.99
2022-10-07T01:55:09.956Z,99.99
2022-10-07T01:56:12.798Z,99.99
2022-10-07T01:57:10.883Z,99.99
2022-10-07T01:58:12.101Z,99.99
2022-10-07T01:59:12.734Z,99.99
2022-10-07T02:00:13.928Z,99.99
2022-10-07T02:01:15.069Z,99.99
2022-10-07T02:02:14.983Z,99.99
2022-10-07T02:03:15.937Z,99.99
2022-10-07T02:04:16.096Z,99.99
2022-10-07T02:05:16.732Z,99.99
2022-10-07T02:06:16.942Z,99.99
2022-10-07T02:07:18.134Z,99.99
2022-10-07T02:08:18.050Z,99.99
2022-10-07T02:09:18.242Z,99.99
2022-10-07T02:10:18.858Z,99.99
2022-10-07T02:11:19.169Z,99.99
2022-10-07T02:12:19.808Z,99.99
2022-10-07T02:13:21.000Z,99.99
2022-10-07T02:14:21.198Z,99.99
2022-10-07T02:15:22.131Z,99.99
2022-10-07T02:16:23.075Z,99.99
2022-10-07T02:17:23.106Z,99.99
2022-10-07T02:18:23.586Z,99.99
2022-10-07T02:19:24.081Z,99.99
2022-10-07T02:20:24.694Z,99.99
2022-10-07T02:21:24.719Z,99.99
2022-10-07T02:22:25.314Z,99.99
2022-10-07T02:23:25.500Z,99.99
2022-10-07T02:24:25.991Z,99.99
2022-10-07T02:25:27.409Z,99.99
2022-10-07T02:26:26.340Z,99.99
2022-10-07T02:27:26.952Z,99.99
2022-10-07T02:28:27.702Z,99.99
2022-10-07T02:29:28.726Z,99.99
2022-10-07T02:30:29.045Z,99.99
2022-10-07T02:31:29.289Z,99.99
2022-10-07T02:32:29.972Z,99.99
2022-10-07T02:33:30.872Z,99.99
2022-10-07T02:34:31.790Z,99.99
2022-10-07T02:35:31.982Z,99.99
2022-10-07T02:36:33.254Z,99.99
2022-10-07T02:37:33.871Z,99.99
2022-10-07T02:38:35.213Z,99.99
2022-10-07T02:39:36.154Z,99.99
2022-10-07T02:40:37.067Z,99.99
2022-10-07T02:41:37.835Z,99.99
2022-10-07T02:42:38.367Z,99.99
2022-10-07T02:43:38.862Z,99.99
2022-10-07T02:44:39.095Z,99.99
2022-10-07T02:45:39.589Z,99.99
2022-10-07T02:46:39.890Z,99.99
2022-10-07T02:47:40.720Z,99.99
2022-10-07T02:48:40.788Z,99.99
2022-10-07T02:49:41.996Z,99.99
2022-10-07T02:50:42.923Z,99.99
2022-10-07T02:51:43.972Z,99.99
2022-10-07T02:52:44.187Z,99.99
2022-10-07T02:53:44.077Z,99.99
2022-10-07T02:54:45.287Z,99.99
2022-10-07T02:55:45.918Z,99.99
2022-10-07T02:56:46.825Z,99.99
2022-10-07T02:57:48.248Z,99.99
2022-10-07T02:58:48.294Z,99.99
2022-10-07T02:59:48.218Z,99.99
2022-10-07T03:00:49.127Z,99.99
2022-10-07T03:01:50.524Z,99.99
2022-10-07T03:02:51.096Z,99.99
2022-10-07T03:03:52.099Z,99.99
2022-10-07T03:04:52.808Z,99.99
2022-10-07T03:05:53.302Z,99.99
2022-10-07T03:06:53.513Z,99.99
2022-10-07T03:07:54.403Z,99.99
2022-10-07T03:08:55.034Z,99.99
2022-10-07T03:09:55.646Z,99.99
2022-10-07T03:10:56.562Z,99.99
2022-10-07T03:11:56.859Z,99.99
2022-10-07T03:12:57.346Z,99.99
2022-10-07T03:13:57.985Z,99.99
2022-10-07T03:14:58.487Z,99.99
2022-10-07T03:15:59.250Z,99.99
2022-10-07T03:17:00.397Z,99.99
2022-10-07T03:18:01.391Z,99.99
2022-10-07T03:19:01.270Z,99.99
2022-10-07T03:20:02.085Z,99.99
2022-10-07T03:21:02.284Z,99.99
2022-10-07T03:22:03.003Z,99.99
2022-10-07T03:23:03.628Z,99.99
2022-10-07T03:24:04.541Z,99.99
2022-10-07T03:25:05.623Z,99.99
2022-10-07T03:26:06.533Z,99.99
2022-10-07T03:27:07.458Z,99.99
2022-10-07T03:28:08.258Z,99.99
2022-10-07T03:29:08.784Z,99.99
2022-10-07T03:30:09.216Z,99.99
2022-10-07T03:31:10.470Z,99.99
2022-10-07T03:32:11.523Z,99.99
2022-10-07T03:33:12.467Z,99.99
2022-10-07T03:34:12.950Z,99.99
2022-10-07T03:35:13.569Z,99.99
2022-10-07T03:36:14.908Z,99.99
2022-10-07T03:37:14.861Z,99.99
2022-10-07T03:38:16.069Z,99.99
2022-10-07T03:39:15.993Z,99.99
2022-10-07T03:40:16.626Z,99.99
2022-10-07T03:41:16.819Z,99.99
2022-10-07T03:42:17.267Z,99.99
2022-10-07T03:43:17.905Z,99.99
2022-10-07T03:44:18.149Z,99.99
2022-10-07T03:45:18.063Z,99.99
2022-10-07T03:46:18.814Z,99.99
2022-10-07T03:47:19.327Z,99.99
2022-10-07T03:48:20.000Z,99.99
2022-10-07T03:49:20.187Z,99.99
2022-10-07T03:50:20.373Z,99.99
2022-10-07T03:51:21.062Z,99.99
2022-10-07T03:52:21.379Z,99.99
2022-10-07T03:53:22.293Z,99.99
2022-10-07T03:54:22.482Z,99.99
2022-10-07T03:55:23.376Z,99.99
2022-10-07T03:56:24.304Z,99.99
2022-10-07T03:57:25.211Z,99.99
2022-10-07T03:58:26.124Z,99.99
2022-10-07T03:59:27.038Z,99.99
2022-10-07T04:00:27.540Z,99.99
2022-10-07T04:01:28.188Z,99.99
2022-10-07T04:02:28.407Z,99.99
2022-10-07T04:03:29.689Z,99.99
2022-10-07T04:04:30.164Z,99.99
2022-10-07T04:05:30.361Z,99.99
2022-10-07T04:06:31.252Z,99.99
2022-10-07T04:07:31.482Z,99.99
2022-10-07T04:08:32.638Z,99.99
2022-10-07T04:09:32.493Z,99.99
2022-10-07T04:10:32.404Z,99.99
2022-10-07T04:11:32.723Z,99.99
2022-10-07T04:12:34.035Z,99.99
2022-10-07T04:13:34.933Z,99.99
2022-10-07T04:14:35.844Z,99.99
2022-10-07T04:15:36.489Z,99.99
2022-10-07T04:16:41.034Z,99.99
2022-10-07T04:17:37.644Z,99.99
2022-10-07T04:18:38.018Z,99.99
2022-10-07T04:19:38.605Z,99.99
2022-10-07T04:20:39.520Z,99.99
2022-10-07T04:21:39.842Z,99.99
2022-10-07T04:22:40.907Z,99.99
2022-10-07T04:23:41.792Z,99.99
2022-10-07T04:24:42.701Z,99.99
2022-10-07T04:25:42.896Z,99.99
2022-10-07T04:26:43.096Z,99.99
2022-10-07T04:28:03.793Z,99.99
2022-10-07T04:28:44.482Z,99.99
2022-10-07T04:29:44.898Z,99.99
2022-10-07T04:30:45.201Z,99.99
2022-10-07T04:31:45.915Z,99.99
2022-10-07T04:32:45.996Z,99.99
2022-10-07T04:33:46.241Z,99.99
2022-10-07T04:34:46.859Z,99.99
2022-10-07T04:35:47.348Z,99.99
2022-10-07T04:36:47.559Z,99.99
2022-10-07T04:37:48.725Z,99.99
2022-10-07T04:38:49.051Z,99.99
2022-10-07T04:40:05.512Z,99.99
2022-10-07T04:40:50.703Z,99.99
2022-10-07T04:41:51.895Z,99.99
2022-10-07T04:42:52.676Z,99.99
2022-10-07T04:43:56.769Z,99.99
2022-10-07T04:44:53.666Z,99.99
2022-10-07T04:45:54.314Z,99.99
2022-10-07T04:46:55.101Z,99.99
2022-10-07T04:47:55.856Z,99.99
2022-10-07T04:48:56.494Z,99.99
2022-10-07T04:49:57.675Z,99.99
2022-10-07T04:50:57.874Z,99.99
2022-10-07T04:51:57.761Z,99.99
2022-10-07T04:52:58.801Z,99.99
2022-10-07T04:54:02.269Z,99.99
2022-10-07T04:54:59.898Z,99.99
2022-10-07T04:56:00.501Z,99.99
2022-10-07T04:57:00.990Z,99.99
2022-10-07T04:58:01.645Z,99.99
2022-10-07T04:59:01.837Z,99.99
2022-10-07T05:00:02.481Z,99.99
2022-10-07T05:01:03.058Z,99.99
2022-10-07T05:02:03.000Z,99.99
2022-10-07T05:03:03.353Z,99.99
2022-10-07T05:04:03.266Z,99.99
2022-10-07T05:05:03.446Z,99.99
2022-10-07T05:06:10.063Z,99.99
2022-10-07T05:07:04.967Z,99.99
2022-10-07T05:08:06.196Z,99.99
2022-10-07T05:09:07.097Z,99.99
2022-10-07T05:10:08.010Z,99.99
2022-10-07T05:11:08.326Z,99.99
2022-10-07T05:12:08.969Z,99.99
2022-10-07T05:13:09.490Z,99.99
2022-10-07T05:14:10.100Z,99.99
2022-10-07T05:15:10.999Z,99.99
2022-10-07T05:16:11.039Z,99.99
2022-10-07T05:17:11.497Z,99.99
2022-10-07T05:18:12.693Z,99.99
2022-10-07T05:19:13.641Z,99.99
2022-10-07T05:20:13.823Z,99.99
2022-10-07T05:21:14.460Z,99.99
2022-10-07T05:22:15.322Z,99.99
2022-10-07T05:23:16.069Z,99.99
2022-10-07T05:24:16.546Z,99.99
2022-10-07T05:25:17.758Z,99.99
2022-10-07T05:26:18.669Z,99.99
2022-10-07T05:27:19.011Z,99.99
2022-10-07T05:28:19.613Z,99.99
2022-10-07T05:29:19.975Z,99.99
2022-10-07T05:30:20.591Z,99.99
2022-10-07T05:31:20.942Z,99.99
2022-10-07T05:32:22.222Z,99.99
2022-10-07T05:33:22.030Z,99.99
2022-10-07T05:34:22.972Z,99.99
2022-10-07T05:35:23.875Z,99.99
2022-10-07T05:36:24.788Z,99.99
2022-10-07T05:37:24.995Z,99.99
2022-10-07T05:38:25.232Z,99.99
2022-10-07T05:39:25.974Z,99.99
2022-10-07T05:40:26.019Z,99.99
2022-10-07T05:41:26.212Z,99.99
2022-10-07T05:42:27.479Z,99.99
2022-10-07T05:43:28.219Z,99.99
2022-10-07T05:44:28.113Z,99.99
2022-10-07T05:45:29.330Z,99.99
2022-10-07T05:46:29.845Z,99.99
2022-10-07T05:47:30.188Z,99.99
2022-10-07T05:48:33.278Z,99.99
2022-10-07T05:49:31.381Z,99.99
2022-10-07T05:50:31.862Z,99.99
2022-10-07T05:51:32.528Z,99.99
2022-10-07T05:52:32.743Z,99.99
2022-10-07T05:53:33.062Z,99.99
2022-10-07T05:54:33.957Z,99.99
2022-10-07T05:55:38.079Z,99.99
2022-10-07T05:56:35.186Z,99.99
2022-10-07T05:57:35.106Z,99.99
2022-10-07T05:58:36.381Z,99.99
2022-10-07T05:59:37.296Z,99.99
2022-10-07T06:00:37.498Z,99.99
2022-10-07T06:01:37.790Z,99.99
2022-10-07T06:02:38.923Z,99.99
2022-10-07T06:03:39.721Z,99.99
2022-10-07T06:04:40.232Z,99.99
2022-10-07T06:05:41.117Z,99.99
2022-10-07T06:06:42.040Z,99.99
2022-10-07T06:07:42.936Z,99.99
2022-10-07T06:08:43.724Z,99.99
2022-10-07T06:09:43.915Z,99.99
2022-10-07T06:10:44.404Z,99.99
2022-10-07T06:11:45.320Z,99.99
2022-10-07T06:12:46.244Z,99.99
2022-10-07T06:13:47.266Z,99.99
2022-10-07T06:14:48.180Z,99.99
2022-10-07T06:15:48.522Z,99.99
2022-10-07T06:16:50.195Z,99.99
2022-10-07T06:17:50.602Z,99.99
2022-10-07T06:18:50.246Z,99.99
2022-10-07T06:19:50.214Z,99.99
2022-10-07T06:20:51.494Z,99.99
2022-10-07T06:21:51.709Z,99.99
2022-10-07T06:22:52.630Z,99.99
2022-10-07T06:23:53.689Z,99.99
2022-10-07T06:24:53.597Z,99.99
2022-10-07T06:25:54.490Z,99.99
2022-10-07T06:26:54.384Z,99.99
2022-10-07T06:27:59.894Z,99.99
2022-10-07T06:28:56.174Z,99.99
2022-10-07T06:29:56.401Z,99.99
2022-10-07T06:30:57.177Z,99.99
2022-10-07T06:31:57.951Z,99.99
2022-10-07T06:32:58.161Z,99.99
2022-10-07T06:33:58.807Z,99.99
2022-10-07T06:34:59.043Z,99.99
2022-10-07T06:36:03.640Z,99.99
2022-10-07T06:37:00.236Z,99.99
2022-10-07T06:38:01.176Z,99.99
2022-10-07T06:39:01.152Z,99.99
2022-10-07T06:40:04.759Z,99.99
2022-10-07T06:41:01.954Z,99.99
2022-10-07T06:42:03.309Z,99.99
2022-10-07T06:43:03.505Z,99.99
2022-10-07T06:44:04.097Z,99.99
2022-10-07T06:45:04.311Z,99.99
2022-10-07T06:46:04.794Z,99.99
2022-10-07T06:47:09.171Z,99.99
2022-10-07T06:48:05.584Z,99.99
2022-10-07T06:49:05.554Z,99.99
2022-10-07T06:50:06.836Z,99.99
2022-10-07T06:51:07.782Z,99.99
2022-10-07T06:52:07.983Z,99.99
2022-10-07T06:53:08.614Z,99.99
2022-10-07T06:54:09.258Z,99.99
2022-10-07T06:55:09.451Z,99.99
2022-10-07T06:56:10.645Z,99.99
2022-10-07T06:57:44.634Z,99.99
2022-10-07T06:58:16.922Z,99.99
2022-10-07T06:59:11.857Z,99.99
2022-10-07T07:00:12.199Z,99.99
2022-10-07T07:01:12.994Z,99.99
2022-10-07T07:02:13.879Z,99.99
2022-10-07T07:03:14.066Z,99.99
2022-10-07T07:04:14.647Z,99.99
2022-10-07T07:05:15.320Z,99.99
2022-10-07T07:06:16.613Z,99.99
2022-10-07T07:07:16.810Z,99.99
2022-10-07T07:08:17.451Z,99.99
2022-10-07T07:09:18.087Z,99.99
2022-10-07T07:10:19.287Z,99.99
2022-10-07T07:11:19.554Z,99.99
2022-10-07T07:12:19.744Z,99.99
2022-10-07T07:13:20.653Z,99.99
2022-10-07T07:14:20.991Z,99.99
2022-10-07T07:15:21.920Z,99.99
2022-10-07T07:16:22.211Z,99.99
2022-10-07T07:17:22.358Z,99.99
2022-10-07T07:18:22.934Z,99.99
2022-10-07T07:19:22.846Z,99.99
2022-10-07T07:20:23.834Z,99.99
2022-10-07T07:21:24.749Z,99.99
2022-10-07T07:22:25.800Z,99.99
2022-10-07T07:23:26.422Z,99.99
2022-10-07T07:24:27.749Z,99.99
2022-10-07T07:25:27.668Z,99.99
2022-10-07T07:26:28.328Z,99.99
2022-10-07T07:27:29.521Z,99.99
2022-10-07T07:28:30.192Z,99.99
2022-10-07T07:29:30.397Z,99.99
2022-10-07T07:30:31.146Z,99.99
2022-10-07T07:31:32.067Z,99.99
2022-10-07T07:32:32.720Z,99.99
2022-10-07T07:33:33.340Z,99.99
2022-10-07T07:34:34.640Z,99.99
2022-10-07T07:35:35.018Z,99.99
2022-10-07T07:36:35.496Z,99.99
2022-10-07T07:37:35.710Z,99.99
2022-10-07T07:38:35.520Z,99.99
2022-10-07T07:39:36.767Z,99.99
2022-10-07T07:40:37.259Z,99.99
2022-10-07T07:41:37.879Z,99.99
2022-10-07T07:42:38.501Z,99.99
2022-10-07T07:43:39.423Z,99.99
2022-10-07T07:44:40.581Z,99.99
2022-10-07T07:45:40.527Z,99.99
2022-10-07T07:46:41.346Z,99.99
2022-10-07T07:47:42.690Z,99.99
2022-10-07T07:48:42.637Z,99.99
2022-10-07T07:49:42.839Z,99.99
2022-10-07T07:50:43.057Z,99.99
2022-10-07T07:51:43.243Z,99.99
2022-10-07T07:52:44.150Z,99.99
2022-10-07T07:53:44.446Z,99.99
2022-10-07T07:54:45.770Z,99.99
2022-10-07T07:55:46.047Z,99.99
2022-10-07T07:56:46.977Z,99.99
2022-10-07T07:57:48.133Z,99.99
2022-10-07T07:58:48.076Z,99.99
2022-10-07T07:59:48.596Z,99.99
2022-10-07T08:00:48.967Z,99.99
2022-10-07T08:01:50.294Z,99.99
2022-10-07T08:02:50.338Z,99.99
2022-10-07T08:03:51.096Z,99.99
2022-10-07T08:04:52.400Z,99.99
2022-10-07T08:05:53.113Z,99.99
2022-10-07T08:06:53.701Z,99.99
2022-10-07T08:07:54.323Z,99.99
2022-10-07T08:08:54.241Z,99.99
2022-10-07T08:09:55.191Z,99.99
2022-10-07T08:10:57.262Z,99.99
2022-10-07T08:11:56.479Z,99.99
2022-10-07T08:12:57.421Z,99.99
2022-10-07T08:13:58.390Z,99.99
2022-10-07T08:14:59.464Z,99.99
2022-10-07T08:16:00.268Z,99.99
2022-10-07T08:17:00.461Z,99.99
2022-10-07T08:18:01.721Z,99.99
2022-10-07T08:19:02.644Z,99.99
2022-10-07T08:20:02.616Z,99.99
2022-10-07T08:21:03.915Z,99.99
2022-10-07T08:22:04.094Z,99.99
2022-10-07T08:23:04.723Z,99.99
2022-10-07T08:24:05.621Z,99.99
2022-10-07T08:25:06.671Z,99.99
2022-10-07T08:26:07.292Z,99.99
2022-10-07T08:27:08.521Z,99.99
2022-10-07T08:28:08.863Z,99.99
2022-10-07T08:29:09.425Z,99.99
2022-10-07T08:30:09.994Z,99.99
2022-10-07T08:31:11.177Z,99.99
2022-10-07T08:32:11.489Z,99.99
2022-10-07T08:33:12.241Z,99.99
2022-10-07T08:34:13.470Z,99.99
2022-10-07T08:35:13.783Z,99.99
2022-10-07T08:36:14.446Z,99.99
2022-10-07T08:37:15.630Z,99.99
2022-10-07T08:38:19.847Z,99.99
2022-10-07T08:39:16.820Z,99.99
2022-10-07T08:40:17.051Z,99.99
2022-10-07T08:41:18.277Z,99.99
2022-10-07T08:42:18.183Z,99.99
2022-10-07T08:43:19.150Z,99.99
2022-10-07T08:44:22.513Z,99.99
2022-10-07T08:45:20.295Z,99.99
2022-10-07T08:46:21.041Z,99.99
2022-10-07T08:47:21.612Z,99.99
2022-10-07T08:48:22.615Z,99.99
2022-10-07T08:49:22.847Z,99.99
2022-10-07T08:50:25.420Z,99.99
2022-10-07T08:51:23.357Z,99.99
2022-10-07T08:52:24.264Z,99.99
2022-10-07T08:53:25.186Z,99.99
2022-10-07T08:54:25.114Z,99.99
2022-10-07T08:55:25.878Z,99.99
2022-10-07T08:56:26.514Z,99.99
2022-10-07T08:57:27.175Z,99.99
2022-10-07T08:58:27.394Z,99.99
2022-10-07T08:59:28.049Z,99.99
2022-10-07T09:00:28.982Z,99.99
2022-10-07T09:01:29.572Z,99.99
2022-10-07T09:02:30.252Z,99.99
2022-10-07T09:03:30.944Z,99.99
2022-10-07T09:04:31.571Z,99.99
2022-10-07T09:05:31.574Z,99.99
2022-10-07T09:06:31.796Z,99.99
2022-10-07T09:07:32.386Z,99.99
2022-10-07T09:08:33.659Z,99.99
2022-10-07T09:09:33.862Z,99.99
2022-10-07T09:10:34.089Z,99.99
2022-10-07T09:11:34.720Z,99.99
2022-10-07T09:12:35.339Z,99.99
2022-10-07T09:13:35.964Z,99.99
2022-10-07T09:14:36.167Z,99.99
2022-10-07T09:15:37.030Z,99.99
2022-10-07T09:16:37.128Z,99.99
2022-10-07T09:17:51.093Z,99.99
2022-10-07T09:18:38.251Z,99.99
2022-10-07T09:19:39.483Z,99.99
2022-10-07T09:20:39.397Z,99.99
2022-10-07T09:21:39.771Z,99.99
2022-10-07T09:22:40.960Z,99.99
2022-10-07T09:23:41.885Z,99.99
2022-10-07T09:25:42.584Z,99.99
2022-10-07T09:26:43.811Z,99.99
2022-10-07T09:27:44.299Z,99.99
2022-10-07T09:28:45.054Z,99.99
2022-10-07T09:29:44.788Z,99.99
2022-10-07T09:30:45.772Z,99.99
2022-10-07T09:31:45.627Z,99.99
2022-10-07T09:32:46.569Z,99.99
2022-10-07T09:33:47.010Z,99.99
2022-10-07T09:34:47.990Z,99.99
2022-10-07T09:35:48.318Z,99.99
2022-10-07T09:36:48.862Z,99.99
2022-10-07T09:37:50.231Z,99.99
2022-10-07T09:38:50.154Z,99.99
2022-10-07T09:39:50.475Z,99.99
2022-10-07T09:40:51.692Z,99.99
2022-10-07T09:41:52.313Z,99.99
2022-10-07T09:42:53.508Z,99.99
2022-10-07T09:43:53.859Z,99.99
2022-10-07T09:44:54.758Z,99.99
2022-10-07T09:45:55.397Z,99.99
2022-10-07T09:46:55.634Z,99.99
2022-10-07T09:47:55.863Z,99.99
2022-10-07T09:48:56.789Z,99.99
2022-10-07T09:49:57.838Z,99.99
2022-10-07T09:50:57.731Z,99.99
2022-10-07T09:51:58.969Z,99.99
2022-10-07T09:52:59.152Z,99.99
2022-10-07T09:53:59.369Z,99.99
2022-10-07T09:54:59.997Z,99.99
2022-10-07T09:56:01.123Z,99.99
2022-10-07T09:57:02.075Z,99.99
2022-10-07T09:58:02.294Z,99.99
2022-10-07T09:59:02.209Z,99.99
2022-10-07T10:00:03.132Z,99.99
2022-10-07T10:01:04.349Z,99.99
2022-10-07T10:02:04.845Z,99.98
2022-10-07T10:03:10.206Z,97.96
2022-10-07T10:04:05.747Z,96.56
2022-10-07T10:05:05.993Z,94.49
2022-10-07T10:06:06.420Z,92.95
2022-10-07T10:07:06.949Z,92.28
2022-10-07T10:08:07.168Z,90.69
2022-10-07T10:09:07.375Z,90.06
2022-10-07T10:10:08.689Z,90.64
2022-10-07T10:11:08.954Z,90.88
2022-10-07T10:12:09.617Z,90.1
2022-10-07T10:13:10.272Z,87.93
2022-10-07T10:14:11.208Z,86.96
2022-10-07T10:15:11.820Z,86.24
2022-10-07T10:16:12.486Z,85.41
2022-10-07T10:17:12.663Z,84.25
2022-10-07T10:18:13.305Z,83.09
2022-10-07T10:19:14.235Z,81.68
2022-10-07T10:20:14.884Z,80.33
2022-10-07T10:21:15.860Z,80.24
2022-10-07T10:22:16.819Z,80.72
2022-10-07T10:23:17.371Z,79.89
2022-10-07T10:24:17.600Z,79.5
2022-10-07T10:25:18.113Z,80.03
2022-10-07T10:26:18.474Z,78.96
2022-10-07T10:27:19.191Z,78.09
2022-10-07T10:28:19.569Z,76.87
2022-10-07T10:29:20.470Z,75.65
2022-10-07T10:30:21.109Z,75.75
2022-10-07T10:31:21.758Z,74.21
2022-10-07T10:32:22.040Z,73.85
2022-10-07T10:33:23.274Z,73.27
2022-10-07T10:34:23.731Z,73.95
2022-10-07T10:35:23.801Z,75.79
2022-10-07T10:36:24.439Z,76.66
2022-10-07T10:37:25.101Z,75.17
2022-10-07T10:38:25.741Z,75.95
2022-10-07T10:39:26.699Z,77.5
2022-10-07T10:40:26.630Z,78.03
2022-10-07T10:41:27.591Z,78.13
2022-10-07T10:42:28.653Z,78.23
2022-10-07T10:43:42.319Z,78.23
2022-10-07T10:44:29.572Z,78.61
2022-10-07T10:45:29.912Z,78.03
2022-10-07T10:46:31.528Z,78.13
2022-10-07T10:47:31.560Z,79.54
2022-10-07T10:48:32.475Z,79.45
2022-10-07T10:49:32.681Z,77.32
2022-10-07T10:50:33.204Z,78.58
2022-10-07T10:51:33.812Z,78.92
2022-10-07T10:52:34.378Z,79.89
2022-10-07T10:53:34.826Z,79.25
2022-10-07T10:54:35.350Z,79.31
2022-10-07T10:55:35.981Z,80.05
2022-10-07T10:56:36.039Z,80.91
2022-10-07T10:57:37.253Z,82.61
2022-10-07T10:58:37.483Z,83.34
2022-10-07T10:59:38.534Z,85.33
2022-10-07T11:00:39.045Z,86.73
2022-10-07T11:01:39.687Z,88.27
2022-10-07T11:02:40.061Z,88.9
2022-10-07T11:03:40.475Z,89.39
2022-10-07T11:04:41.368Z,90.34
2022-10-07T11:05:41.591Z,91.46
2022-10-07T11:06:41.909Z,91.75
2022-10-07T11:07:42.581Z,92.42
2022-10-07T11:08:44.209Z,92.9
2022-10-07T11:09:43.417Z,93.91
2022-10-07T11:10:43.362Z,93.82
2022-10-07T11:11:44.583Z,93.53
2022-10-07T11:12:45.090Z,95.45
2022-10-07T11:13:46.005Z,95.36
2022-10-07T11:14:46.231Z,95.6
2022-10-07T11:15:46.172Z,95.74
2022-10-07T11:16:47.074Z,96.08
2022-10-07T11:17:47.054Z,96.85
2022-10-07T11:18:47.391Z,97.38
2022-10-07T11:19:47.902Z,98.14
2022-10-07T11:20:50.153Z,98.72
2022-10-07T11:21:48.656Z,98.68
2022-10-07T11:22:49.383Z,99.01
2022-10-07T11:23:49.727Z,98.68
2022-10-07T11:24:50.953Z,98.53
2022-10-07T11:25:51.153Z,99.3
2022-10-07T11:26:51.135Z,99.21
2022-10-07T11:27:52.100Z,99.21
2022-10-07T11:28:52.886Z,99.78
2022-10-07T11:29:53.810Z,99.99
2022-10-07T11:30:53.747Z,99.99
2022-10-07T11:31:54.531Z,99.99
2022-10-07T11:32:54.445Z,99.99
2022-10-07T11:33:54.945Z,99.99
2022-10-07T11:34:59.591Z,99.99
2022-10-07T11:35:56.108Z,99.26
2022-10-07T11:36:57.110Z,99.99
2022-10-07T11:37:57.070Z,99.99
2022-10-07T11:38:58.283Z,98.34
2022-10-07T11:39:58.921Z,96.99
2022-10-07T11:40:59.128Z,97.19
2022-10-07T11:41:59.661Z,96.42
2022-10-07T11:42:59.858Z,96.99
2022-10-07T11:44:00.189Z,96.7
2022-10-07T11:45:01.095Z,97.38
2022-10-07T11:46:01.999Z,97.47
2022-10-07T11:47:03.112Z,97.86
2022-10-07T11:48:03.703Z,98.68
2022-10-07T11:49:03.931Z,98.49
2022-10-07T11:50:03.848Z,98.96
2022-10-07T11:51:04.767Z,99.54
2022-10-07T11:52:05.991Z,98.68
2022-10-07T11:53:06.662Z,99.16
2022-10-07T11:54:07.853Z,99.06
2022-10-07T11:55:08.487Z,99.16
2022-10-07T11:56:09.414Z,99.44
2022-10-07T11:57:10.155Z,99.3
2022-10-07T11:58:11.062Z,99.44
2022-10-07T11:59:11.265Z,99.99
2022-10-07T12:00:12.474Z,99.99
2022-10-07T12:01:13.399Z,99.35
2022-10-07T12:02:15.765Z,96.75
2022-10-07T12:03:14.701Z,98.05
2022-10-07T12:04:15.580Z,97.96
2022-10-07T12:05:15.749Z,97.19
2022-10-07T12:06:16.120Z,97.28
2022-10-07T12:07:16.732Z,98.82
2022-10-07T12:08:16.660Z,99.99
2022-10-07T12:09:17.551Z,98.24
2022-10-07T12:10:18.490Z,97.57
2022-10-07T12:11:19.491Z,97.42
2022-10-07T12:12:19.819Z,96.17
2022-10-07T12:13:20.026Z,96.08
2022-10-07T12:14:20.657Z,96.66
2022-10-07T12:15:21.719Z,96.75
2022-10-07T12:16:22.486Z,97.38
2022-10-07T12:17:23.405Z,96.7
2022-10-07T12:18:23.318Z,97.28
2022-10-07T12:19:28.731Z,97.67
2022-10-07T12:20:24.343Z,97.24
2022-10-07T12:21:25.278Z,96.56
2022-10-07T12:22:26.247Z,94.54
2022-10-07T12:23:26.780Z,94.2
2022-10-07T12:24:26.674Z,94.68
2022-10-07T12:25:27.004Z,95.26
2022-10-07T12:26:27.717Z,95.26
2022-10-07T12:27:28.620Z,94.39
2022-10-07T12:28:30.115Z,95.07
2022-10-07T12:29:30.397Z,96.22
2022-10-07T12:30:30.308Z,93.72
2022-10-07T12:31:31.356Z,94.68
2022-10-07T12:32:32.014Z,94.29
2022-10-07T12:33:32.733Z,93.19
2022-10-07T12:34:32.966Z,92.71
2022-10-07T12:35:33.600Z,93.96
2022-10-07T12:36:34.250Z,94.73
2022-10-07T12:37:34.565Z,94.24
2022-10-07T12:38:34.581Z,92.8
2022-10-07T12:39:35.081Z,92.8
2022-10-07T12:40:35.737Z,95.11
2022-10-07T12:41:39.894Z,91.93
2022-10-07T12:42:37.058Z,91.55
2022-10-07T12:43:37.959Z,92.08
2022-10-07T12:44:38.589Z,90.72
2022-10-07T12:45:39.062Z,91.25
2022-10-07T12:46:40.240Z,90.87
2022-10-07T12:47:40.583Z,89.03
2022-10-07T12:48:41.508Z,89.23
2022-10-07T12:49:42.437Z,89.71
2022-10-07T12:50:43.071Z,90.92
2022-10-07T12:51:43.807Z,91.6
2022-10-07T12:52:43.988Z,90.88
2022-10-07T12:53:44.819Z,91.26
2022-10-07T12:54:45.438Z,91.74
2022-10-07T12:55:45.652Z,91.45
2022-10-07T12:56:46.277Z,92.03
2022-10-07T12:57:46.623Z,91.78
2022-10-07T12:58:46.837Z,90.72
2022-10-07T12:59:47.771Z,90.63
2022-10-07T13:00:49.282Z,90.24
2022-10-07T13:01:49.929Z,90.05